createdAt,value
2018-05-21T00:00:50.442Z,98778
2018-05-21T00:03:18.016Z,98769
2018-05-21T00:05:45.579Z,98766
2018-05-21T00:08:13.151Z,98761
2018-05-21T00:10:40.819Z,98768
2018-05-21T00:13:09.202Z,98778
2018-05-21T00:15:38.706Z,98774
2018-05-21T00:18:08.263Z,98768
2018-05-21T00:20:36.243Z,98774
2018-05-21T00:23:03.810Z,98765
2018-05-21T00:25:31.391Z,98767
2018-05-21T00:27:59.067Z,98762
2018-05-21T00:30:27.443Z,98757
2018-05-21T00:32:55.112Z,98760
2018-05-21T00:35:23.447Z,98752
2018-05-21T00:37:51.054Z,98753
2018-05-21T00:40:19.409Z,98751
2018-05-21T00:42:47.099Z,98751
2018-05-21T00:45:15.442Z,98752
2018-05-21T00:47:43.036Z,98757
2018-05-21T00:50:11.375Z,98759
2018-05-21T00:52:38.952Z,98752
2018-05-21T00:55:18.518Z,98749
2018-05-21T00:57:46.896Z,98748
2018-05-21T01:00:15.247Z,98746
2018-05-21T01:02:42.836Z,98738
2018-05-21T01:05:10.423Z,98752
2018-05-21T01:07:37.999Z,98734
2018-05-21T01:10:06.356Z,98737
2018-05-21T01:12:34.720Z,98734
2018-05-21T01:15:02.288Z,98728
2018-05-21T01:17:30.627Z,98737
2018-05-21T01:19:58.911Z,98732
2018-05-21T01:22:26.480Z,98734
2018-05-21T01:24:54.054Z,98727
2018-05-21T01:27:22.403Z,98736
2018-05-21T01:29:49.999Z,98733
2018-05-21T01:32:17.572Z,98729
2018-05-21T01:34:45.936Z,98730
2018-05-21T01:37:13.503Z,98730
2018-05-21T01:39:41.880Z,98734
2018-05-21T01:42:09.458Z,98730
2018-05-21T01:44:39.134Z,98728
2018-05-21T01:47:06.820Z,98723
2018-05-21T01:49:35.203Z,98728
2018-05-21T01:52:03.543Z,98725
2018-05-21T01:54:31.238Z,98722
2018-05-21T01:56:59.619Z,98714
2018-05-21T01:59:27.963Z,98718
2018-05-21T02:01:55.536Z,98706
2018-05-21T02:04:23.112Z,98701
2018-05-21T02:06:52.191Z,98712
2018-05-21T02:09:19.763Z,98712
2018-05-21T02:11:47.332Z,98714
2018-05-21T02:14:15.009Z,98712
2018-05-21T02:16:43.379Z,98703
2018-05-21T02:19:10.954Z,98720
2018-05-21T02:21:39.319Z,98707
2018-05-21T02:24:08.809Z,98711
2018-05-21T02:26:37.459Z,98718
2018-05-21T02:29:05.031Z,98712
2018-05-21T02:31:32.600Z,98717
2018-05-21T02:34:00.216Z,98714
2018-05-21T02:36:28.562Z,98718
2018-05-21T02:38:56.135Z,98721
2018-05-21T02:41:23.812Z,98717
2018-05-21T02:43:52.152Z,98707
2018-05-21T02:46:19.847Z,98709
2018-05-21T02:48:48.182Z,98701
2018-05-21T02:51:15.791Z,98704
2018-05-21T02:53:44.167Z,98702
2018-05-21T02:56:12.557Z,98707
2018-05-21T02:58:40.929Z,98705
2018-05-21T03:01:09.271Z,98700
2018-05-21T03:03:36.853Z,98700
2018-05-21T03:06:04.527Z,98697
2018-05-21T03:08:32.096Z,98699
2018-05-21T03:11:00.474Z,98692
2018-05-21T03:13:28.848Z,98692
2018-05-21T03:15:56.420Z,98695
2018-05-21T03:18:24.806Z,98692
2018-05-21T03:20:53.176Z,98684
2018-05-21T03:23:21.559Z,98699
2018-05-21T03:25:49.935Z,98690
2018-05-21T03:28:18.320Z,98688
2018-05-21T03:30:46.692Z,98692
2018-05-21T03:33:15.076Z,98700
2018-05-21T03:35:43.449Z,98681
2018-05-21T03:38:11.038Z,98684
2018-05-21T03:40:38.684Z,98692
2018-05-21T03:43:07.819Z,98699
2018-05-21T03:45:35.401Z,98695
2018-05-21T03:48:02.978Z,98694
2018-05-21T03:50:30.658Z,98686
2018-05-21T03:52:59.004Z,98691
2018-05-21T03:55:26.572Z,98686
2018-05-21T03:57:54.145Z,98691
2018-05-21T04:00:33.660Z,98686
2018-05-21T04:03:20.208Z,98688
2018-05-21T04:05:48.539Z,98694
2018-05-21T04:08:16.147Z,98685
2018-05-21T04:10:43.719Z,98691
2018-05-21T04:13:12.056Z,98690
2018-05-21T04:15:39.652Z,98689
2018-05-21T04:18:08.008Z,98685
2018-05-21T04:20:35.815Z,98689
2018-05-21T04:23:03.412Z,98681
2018-05-21T04:25:31.005Z,98689
2018-05-21T04:27:58.692Z,98686
2018-05-21T04:30:27.061Z,98690
2018-05-21T04:32:55.449Z,98678
2018-05-21T04:35:23.835Z,98690
2018-05-21T04:37:52.211Z,98695
2018-05-21T04:40:20.584Z,98688
2018-05-21T04:42:48.935Z,98689
2018-05-21T04:45:16.522Z,98683
2018-05-21T04:47:44.097Z,98690
2018-05-21T04:50:12.444Z,98682
2018-05-21T04:52:40.140Z,98684
2018-05-21T04:55:08.511Z,98690
2018-05-21T04:57:36.884Z,98688
2018-05-21T05:00:04.547Z,98694
2018-05-21T05:02:32.219Z,98680
2018-05-21T05:05:00.560Z,98691
2018-05-21T05:07:28.853Z,98688
2018-05-21T05:09:57.236Z,98687
2018-05-21T05:12:24.802Z,98679
2018-05-21T05:14:52.368Z,98679
2018-05-21T05:17:20.751Z,98680
2018-05-21T05:19:49.138Z,98682
2018-05-21T05:22:17.511Z,98684
2018-05-21T05:24:45.183Z,98673
2018-05-21T05:27:13.555Z,98682
2018-05-21T05:29:41.912Z,98677
2018-05-21T05:32:09.498Z,98666
2018-05-21T05:34:38.014Z,98677
2018-05-21T05:37:07.764Z,98662
2018-05-21T05:39:35.339Z,98666
2018-05-21T05:42:02.997Z,98667
2018-05-21T05:44:31.296Z,98659
2018-05-21T05:46:59.639Z,98659
2018-05-21T05:49:27.212Z,98656
2018-05-21T05:51:54.801Z,98647
2018-05-21T05:54:23.300Z,98656
2018-05-21T05:56:50.900Z,98657
2018-05-21T05:59:18.570Z,98659
2018-05-21T06:01:46.269Z,98660
2018-05-21T06:04:14.766Z,98661
2018-05-21T06:06:42.384Z,98656
2018-05-21T06:09:10.051Z,98652
2018-05-21T06:11:38.224Z,98651
2018-05-21T06:14:06.239Z,98650
2018-05-21T06:16:33.820Z,98661
2018-05-21T06:19:01.544Z,98654
2018-05-21T06:21:29.220Z,98647
2018-05-21T06:23:57.711Z,98643
2018-05-21T06:26:25.360Z,98645
2018-05-21T06:28:53.707Z,98638
2018-05-21T06:31:21.301Z,98639
2018-05-21T06:33:49.754Z,98640
2018-05-21T06:36:18.032Z,98638
2018-05-21T06:38:45.729Z,98631
2018-05-21T06:41:14.069Z,98636
2018-05-21T06:43:41.639Z,98630
2018-05-21T06:46:09.577Z,98642
2018-05-21T06:48:38.084Z,98631
2018-05-21T06:51:06.239Z,98641
2018-05-21T06:53:33.860Z,98649
2018-05-21T06:56:02.192Z,98635
2018-05-21T06:58:29.796Z,98630
2018-05-21T07:00:58.130Z,98633
2018-05-21T07:03:25.697Z,98629
2018-05-21T07:05:53.292Z,98627
2018-05-21T07:08:21.669Z,98622
2018-05-21T07:10:50.008Z,98625
2018-05-21T07:13:17.573Z,98621
2018-05-21T07:15:45.139Z,98611
2018-05-21T07:18:12.782Z,98608
2018-05-21T07:20:41.131Z,98612
2018-05-21T07:23:09.588Z,98613
2018-05-21T07:25:37.952Z,98613
2018-05-21T07:28:06.270Z,98611
2018-05-21T07:30:36.168Z,98607
2018-05-21T07:33:04.819Z,98604
2018-05-21T07:35:32.511Z,98606
2018-05-21T07:38:00.679Z,98602
2018-05-21T07:40:28.255Z,98601
2018-05-21T07:42:56.590Z,98586
2018-05-21T07:45:24.159Z,98588
2018-05-21T07:47:51.731Z,98604
2018-05-21T07:50:19.325Z,98602
2018-05-21T07:52:47.695Z,98602
2018-05-21T07:55:15.356Z,98596
2018-05-21T07:57:43.023Z,98590
2018-05-21T08:00:11.406Z,98586
2018-05-21T08:02:39.748Z,98594
2018-05-21T08:05:08.716Z,98586
2018-05-21T08:07:37.888Z,98587
2018-05-21T08:10:06.247Z,98582
2018-05-21T08:12:33.916Z,98586
2018-05-21T08:15:02.055Z,98587
2018-05-21T08:17:30.433Z,98591
2018-05-21T08:19:58.022Z,98571
2018-05-21T08:22:25.783Z,98586
2018-05-21T08:24:55.158Z,98599
2018-05-21T08:27:22.667Z,98567
2018-05-21T08:29:51.021Z,98562
2018-05-21T08:32:18.630Z,98558
2018-05-21T08:34:46.199Z,98563
2018-05-21T08:37:13.771Z,98562
2018-05-21T08:39:41.352Z,98547
2018-05-21T08:42:09.035Z,98549
2018-05-21T08:44:37.509Z,98548
2018-05-21T08:47:05.195Z,98556
2018-05-21T08:49:32.856Z,98539
2018-05-21T08:52:00.515Z,98534
2018-05-21T08:54:28.178Z,98544
2018-05-21T08:56:55.753Z,98538
2018-05-21T08:59:24.111Z,98530
2018-05-21T09:01:51.676Z,98524
2018-05-21T09:04:19.460Z,98541
2018-05-21T09:06:47.807Z,98523
2018-05-21T09:09:15.387Z,98528
2018-05-21T09:11:43.052Z,98522
2018-05-21T09:14:10.658Z,98511
2018-05-21T09:16:38.254Z,98513
2018-05-21T09:19:06.665Z,98510
2018-05-21T09:21:34.346Z,98507
2018-05-21T09:24:02.000Z,98512
2018-05-21T09:26:30.352Z,98513
2018-05-21T09:28:57.929Z,98503
2018-05-21T09:31:26.392Z,98507
2018-05-21T09:33:54.699Z,98506
2018-05-21T09:36:23.038Z,98501
2018-05-21T09:38:50.707Z,98513
2018-05-21T09:41:18.288Z,98505
2018-05-21T09:43:45.856Z,98509
2018-05-21T09:46:14.226Z,98502
2018-05-21T09:48:41.860Z,98508
2018-05-21T09:51:09.443Z,98501
2018-05-21T09:53:37.115Z,98492
2018-05-21T09:56:04.687Z,98494
2018-05-21T09:58:33.076Z,98490
2018-05-21T10:01:01.421Z,98490
2018-05-21T10:03:29.004Z,98480
2018-05-21T10:05:57.357Z,98483
2018-05-21T10:08:25.041Z,98480
2018-05-21T10:10:52.710Z,98485
2018-05-21T10:13:21.055Z,98486
2018-05-21T10:15:48.656Z,98474
2018-05-21T10:18:16.231Z,98478
2018-05-21T10:20:43.860Z,98479
2018-05-21T10:23:11.538Z,98475
2018-05-21T10:25:39.908Z,98458
2018-05-21T10:28:08.589Z,98455
2018-05-21T10:30:37.991Z,98450
2018-05-21T10:33:06.203Z,98442
2018-05-21T10:35:34.411Z,98464
2018-05-21T10:38:01.985Z,98448
2018-05-21T10:40:29.561Z,98446
2018-05-21T10:42:57.239Z,98436
2018-05-21T10:45:24.807Z,98437
2018-05-21T10:47:53.137Z,98435
2018-05-21T10:50:20.748Z,98442
2018-05-21T10:52:49.091Z,98430
2018-05-21T10:55:17.402Z,98432
2018-05-21T10:57:45.784Z,98432
2018-05-21T11:00:14.153Z,98427
2018-05-21T11:02:42.544Z,98425
2018-05-21T11:05:11.147Z,98428
2018-05-21T11:07:38.797Z,98422
2018-05-21T11:10:07.331Z,98415
2018-05-21T11:12:34.976Z,98418
2018-05-21T11:15:02.594Z,98412
2018-05-21T11:17:30.947Z,98413
2018-05-21T11:19:58.518Z,98399
2018-05-21T11:22:26.204Z,98402
2018-05-21T11:24:54.543Z,98388
2018-05-21T11:27:22.151Z,98395
2018-05-21T11:29:50.553Z,98408
2018-05-21T11:32:18.196Z,98393
2018-05-21T11:34:46.541Z,98400
2018-05-21T11:37:14.223Z,98392
2018-05-21T11:39:41.811Z,98397
2018-05-21T11:42:09.610Z,98395
2018-05-21T11:44:37.429Z,98392
2018-05-21T11:47:07.131Z,98382
2018-05-21T11:49:34.795Z,98383
2018-05-21T11:52:02.464Z,98389
2018-05-21T11:54:30.959Z,98379
2018-05-21T11:56:59.320Z,98373
2018-05-21T11:59:26.905Z,98371
2018-05-21T12:01:54.555Z,98378
2018-05-21T12:04:24.808Z,98378
2018-05-21T12:06:52.435Z,98373
2018-05-21T12:09:20.824Z,98372
2018-05-21T12:11:50.363Z,98363
2018-05-21T12:14:17.957Z,98369
2018-05-21T12:16:45.540Z,98356
2018-05-21T12:19:13.199Z,98357
2018-05-21T12:21:40.867Z,98363
2018-05-21T12:24:09.218Z,98370
2018-05-21T12:26:36.810Z,98363
2018-05-21T12:29:05.155Z,98353
2018-05-21T12:31:32.723Z,98351
2018-05-21T12:34:00.319Z,98352
2018-05-21T12:36:28.691Z,98345
2018-05-21T12:38:57.076Z,98354
2018-05-21T12:41:25.427Z,98352
2018-05-21T12:43:53.110Z,98358
2018-05-21T12:46:20.707Z,98345
2018-05-21T12:48:48.283Z,98355
2018-05-21T12:51:15.918Z,98349
2018-05-21T12:53:43.554Z,98344
2018-05-21T12:56:12.642Z,98346
2018-05-21T12:58:41.040Z,98346
2018-05-21T13:01:09.390Z,98350
2018-05-21T13:03:37.608Z,98359
2018-05-21T13:06:05.257Z,98355
2018-05-21T13:08:33.658Z,98344
2018-05-21T13:11:02.001Z,98329
2018-05-21T13:13:29.676Z,98341
2018-05-21T13:15:58.265Z,98335
2018-05-21T13:18:26.606Z,98331
2018-05-21T13:20:54.200Z,98324
2018-05-21T13:23:22.588Z,98316
2018-05-21T13:25:50.928Z,98317
2018-05-21T13:28:18.495Z,98312
2018-05-21T13:30:46.080Z,98314
2018-05-21T13:33:13.648Z,98309
2018-05-21T13:35:42.031Z,98311
2018-05-21T13:38:10.362Z,98318
2018-05-21T13:40:37.928Z,98314
2018-05-21T13:43:05.508Z,98312
2018-05-21T13:45:33.919Z,98311
2018-05-21T13:48:02.295Z,98303
2018-05-21T13:50:30.671Z,98288
2018-05-21T13:52:59.047Z,98285
2018-05-21T13:55:26.818Z,98296
2018-05-21T13:57:55.144Z,98283
2018-05-21T14:00:22.733Z,98284
2018-05-21T14:02:50.508Z,98286
2018-05-21T14:05:18.176Z,98279
2018-05-21T14:07:45.750Z,98269
2018-05-21T14:10:14.129Z,98280
2018-05-21T14:12:42.508Z,98266
2018-05-21T14:15:10.880Z,98256
2018-05-21T14:17:39.224Z,98260
2018-05-21T14:20:06.839Z,98269
2018-05-21T14:22:35.179Z,98244
2018-05-21T14:25:02.780Z,98256
2018-05-21T14:27:31.230Z,98250
2018-05-21T14:29:58.807Z,98252
2018-05-21T14:32:27.190Z,98252
2018-05-21T14:34:55.583Z,98251
2018-05-21T14:37:23.956Z,98237
2018-05-21T14:39:52.332Z,98246
2018-05-21T14:42:20.675Z,98242
2018-05-21T14:44:48.276Z,98240
2018-05-21T14:47:16.640Z,98246
2018-05-21T14:49:44.311Z,98239
2018-05-21T14:52:11.882Z,98233
2018-05-21T14:54:40.251Z,98231
2018-05-21T14:57:08.792Z,98221
2018-05-21T14:59:36.558Z,98228
2018-05-21T15:02:04.300Z,98230
2018-05-21T15:04:31.904Z,98224
2018-05-21T15:06:59.493Z,98215
2018-05-21T15:09:27.872Z,98209
2018-05-21T15:11:56.220Z,98193
2018-05-21T15:14:23.819Z,98196
2018-05-21T15:16:52.213Z,98194
2018-05-21T15:19:19.795Z,98200
2018-05-21T15:21:47.416Z,98186
2018-05-21T15:24:14.996Z,98189
2018-05-21T15:26:42.574Z,98190
2018-05-21T15:29:10.203Z,98191
2018-05-21T15:31:38.539Z,98188
2018-05-21T15:34:07.258Z,98191
2018-05-21T15:36:34.982Z,98186
2018-05-21T15:39:02.562Z,98197
2018-05-21T15:41:30.379Z,98189
2018-05-21T15:43:58.716Z,98186
2018-05-21T15:46:26.295Z,98185
2018-05-21T15:48:53.983Z,98184
2018-05-21T15:51:22.313Z,98176
2018-05-21T15:53:51.068Z,98180
2018-05-21T15:56:18.659Z,98173
2018-05-21T15:58:46.251Z,98172
2018-05-21T16:01:13.830Z,98174
2018-05-21T16:03:42.225Z,98165
2018-05-21T16:06:10.575Z,98163
2018-05-21T16:08:38.224Z,98149
2018-05-21T16:11:06.229Z,98161
2018-05-21T16:13:33.875Z,98157
2018-05-21T16:16:02.207Z,98161
2018-05-21T16:18:29.779Z,98164
2018-05-21T16:20:57.360Z,98159
2018-05-21T16:23:24.981Z,98165
2018-05-21T16:25:52.697Z,98162
2018-05-21T16:28:21.032Z,98159
2018-05-21T16:30:48.610Z,98166
2018-05-21T16:33:16.207Z,98170
2018-05-21T16:35:44.562Z,98181
2018-05-21T16:38:12.131Z,98173
2018-05-21T16:40:40.475Z,98173
2018-05-21T16:43:08.049Z,98163
2018-05-21T16:45:36.483Z,98163
2018-05-21T16:48:04.847Z,98165
2018-05-21T16:50:33.179Z,98159
2018-05-21T16:53:00.752Z,98168
2018-05-21T16:55:28.349Z,98154
2018-05-21T16:57:56.733Z,98158
2018-05-21T17:00:25.145Z,98156
2018-05-21T17:02:52.708Z,98151
2018-05-21T17:05:20.308Z,98161
2018-05-21T17:07:47.899Z,98150
2018-05-21T17:10:16.256Z,98152
2018-05-21T17:12:43.843Z,98140
2018-05-21T17:15:12.193Z,98147
2018-05-21T17:17:39.997Z,98148
2018-05-21T17:20:07.853Z,98147
2018-05-21T17:22:36.697Z,98151
2018-05-21T17:25:04.275Z,98151
2018-05-21T17:27:31.886Z,98153
2018-05-21T17:29:59.524Z,98148
2018-05-21T17:32:27.899Z,98153
2018-05-21T17:34:56.232Z,98143
2018-05-21T17:37:23.808Z,98158
2018-05-21T17:39:51.378Z,98155
2018-05-21T17:42:18.983Z,98161
2018-05-21T17:44:46.854Z,98157
2018-05-21T17:47:14.475Z,98156
2018-05-21T17:49:42.156Z,98160
2018-05-21T17:52:09.841Z,98157
2018-05-21T17:54:38.916Z,98162
2018-05-21T17:57:07.676Z,98167
2018-05-21T17:59:36.010Z,98166
2018-05-21T18:02:03.583Z,98176
2018-05-21T18:04:31.307Z,98178
2018-05-21T18:06:59.860Z,98180
2018-05-21T18:09:27.680Z,98192
2018-05-21T18:11:57.225Z,98189
2018-05-21T18:14:24.802Z,98193
2018-05-21T18:16:52.471Z,98193
2018-05-21T18:19:20.726Z,98196
2018-05-21T18:21:48.296Z,98192
2018-05-21T18:24:15.990Z,98196
2018-05-21T18:26:45.608Z,98187
2018-05-21T18:29:14.864Z,98188
2018-05-21T18:31:42.436Z,98185
2018-05-21T18:34:09.998Z,98195
2018-05-21T18:36:38.282Z,98182
2018-05-21T18:39:06.830Z,98182
2018-05-21T18:41:35.164Z,98180
2018-05-21T18:44:02.769Z,98183
2018-05-21T18:46:30.774Z,98183
2018-05-21T18:48:58.482Z,98178
2018-05-21T18:51:26.866Z,98179
2018-05-21T18:53:54.484Z,98189
2018-05-21T18:56:22.090Z,98176
2018-05-21T18:58:49.672Z,98178
2018-05-21T19:01:17.259Z,98183
2018-05-21T19:03:44.826Z,98183
2018-05-21T19:06:12.485Z,98179
2018-05-21T19:08:39.978Z,98193
2018-05-21T19:11:08.331Z,98182
2018-05-21T19:13:37.044Z,98181
2018-05-21T19:16:05.455Z,98189
2018-05-21T19:18:33.044Z,98187
2018-05-21T19:21:00.746Z,98196
2018-05-21T19:23:28.422Z,98194
2018-05-21T19:25:56.754Z,98204
2018-05-21T19:28:24.468Z,98201
2018-05-21T19:30:52.807Z,98206
2018-05-21T19:33:20.389Z,98209
2018-05-21T19:35:48.024Z,98218
2018-05-21T19:38:15.686Z,98221
2018-05-21T19:40:43.387Z,98222
2018-05-21T19:43:11.726Z,98223
2018-05-21T19:45:39.343Z,98214
2018-05-21T19:48:06.919Z,98228
2018-05-21T19:50:34.524Z,98225
2018-05-21T19:53:02.103Z,98223
2018-05-21T19:55:29.698Z,98222
2018-05-21T19:57:57.294Z,98220
2018-05-21T20:00:24.884Z,98219
2018-05-21T20:20:10.688Z,98205
2018-05-21T20:39:57.300Z,98219
2018-05-21T20:42:25.258Z,98229
2018-05-21T20:44:53.110Z,98221
2018-05-21T20:47:21.315Z,98227
2018-05-21T20:49:49.310Z,98230
2018-05-21T20:52:17.311Z,98226
2018-05-21T21:12:03.988Z,98232
2018-05-21T21:14:31.562Z,98234
2018-05-21T21:34:17.716Z,98227
2018-05-21T21:36:45.289Z,98236
2018-05-21T21:39:12.870Z,98230
2018-05-21T21:41:40.424Z,98222
2018-05-21T21:44:08.021Z,98219
2018-05-21T22:03:54.496Z,98229
2018-05-21T22:06:22.057Z,98231
2018-05-21T22:08:49.633Z,98228
2018-05-21T22:11:17.233Z,98233
2018-05-21T22:13:44.783Z,98231
2018-05-21T22:33:31.180Z,98234
2018-05-21T22:53:17.987Z,98232
2018-05-21T22:55:45.561Z,98233
2018-05-21T22:58:13.173Z,98221
2018-05-21T23:00:40.728Z,98226
2018-05-21T23:03:08.286Z,98224
2018-05-21T23:05:35.875Z,98215
2018-05-21T23:08:03.452Z,98216
2018-05-21T23:10:31.011Z,98212
2018-05-21T23:12:58.585Z,98206
2018-05-21T23:15:26.141Z,98212
2018-05-21T23:17:53.703Z,98207
2018-05-21T23:37:40.933Z,98205
2018-05-21T23:40:08.506Z,98203
2018-05-21T23:42:36.082Z,98213
2018-05-21T23:45:03.644Z,98215
2018-05-21T23:47:31.212Z,98204
2018-05-21T23:49:58.809Z,98205
2018-05-21T23:52:26.464Z,98203
2018-05-21T23:54:54.114Z,98207
2018-05-21T23:57:21.706Z,98200
2018-05-21T23:59:49.293Z,98209
